Time;durP1;ratioP1;P1;durP2;ratioP2;P2;SDS_P1;SDS_P2;PMS_P1;PMS_P2;Temp;Humidity;BMP_temperature;BMP_pressure;BME280_temperature;BME280_humidity;BME280_pressure;Samples;Min_cycle;Max_cycle;Signal;HPM_P1;HPM_P2
2023/08/13 00:01:12;;;;;;;1.33;1.33;;;;;;;21.25;87.54;95803.63;4339102;32;20249;-68
2023/08/13 00:03:37;;;;;;;1.40;1.30;;;;;;;21.28;88.14;95807.56;4349355;32;20189;-68
2023/08/13 00:06:03;;;;;;;1.83;1.73;;;;;;;21.29;88.66;95819.13;4333709;32;20239;-67
2023/08/13 00:08:28;;;;;;;2.03;1.93;;;;;;;21.25;86.61;95814.44;4338584;32;20252;-67
2023/08/13 00:10:54;;;;;;;1.63;1.53;;;;;;;21.30;87.98;95804.50;4356151;32;20193;-67
2023/08/13 00:13:19;;;;;;;1.93;1.83;;;;;;;21.33;88.86;95806.50;4337717;32;20223;-67
2023/08/13 00:15:44;;;;;;;2.03;1.93;;;;;;;21.29;88.25;95809.13;4361973;32;20232;-64
2023/08/13 00:18:10;;;;;;;2.00;1.90;;;;;;;21.30;88.03;95805.28;4355276;32;20193;-67
2023/08/13 00:20:36;;;;;;;1.63;1.63;;;;;;;21.31;88.33;95808.78;4355220;32;20178;-68
2023/08/13 00:23:01;;;;;;;1.90;1.90;;;;;;;21.30;88.44;95808.00;4343176;32;20212;-67
2023/08/13 00:25:26;;;;;;;1.63;1.53;;;;;;;21.29;88.58;95808.34;4356165;32;20228;-67
2023/08/13 00:27:52;;;;;;;1.97;1.87;;;;;;;21.31;88.93;95806.06;4339687;32;20189;-67
2023/08/13 00:30:18;;;;;;;1.87;1.77;;;;;;;21.31;89.20;95806.06;4350585;32;20189;-67
2023/08/13 00:32:43;;;;;;;2.00;1.90;;;;;;;21.29;88.90;95805.62;4340581;32;20189;-67
2023/08/13 00:35:09;;;;;;;1.60;1.50;;;;;;;21.26;88.99;95813.31;4345773;32;20199;-68
2023/08/13 00:37:35;;;;;;;2.03;1.93;;;;;;;21.24;87.98;95815.56;4355587;32;20283;-67
2023/08/13 00:40:01;;;;;;;2.30;1.73;;;;;;;21.26;88.13;95810.59;4356169;32;20211;-68
2023/08/13 00:42:26;;;;;;;2.00;1.90;;;;;;;21.27;88.92;95801.37;4353518;32;20220;-67
2023/08/13 00:44:52;;;;;;;1.60;1.50;;;;;;;21.27;89.04;95809.47;4345658;32;20189;-68
2023/08/13 00:47:17;;;;;;;1.93;1.83;;;;;;;21.25;89.43;95800.16;4349705;32;20208;-67
2023/08/13 00:49:43;;;;;;;1.60;1.53;;;;;;;21.24;89.13;95802.06;4341644;32;20219;-68
2023/08/13 00:52:08;;;;;;;2.63;2.53;;;;;;;21.25;89.81;95797.44;4337628;32;20200;-68
2023/08/13 00:54:35;;;;;;;2.00;1.90;;;;;;;21.25;90.25;95803.63;4354563;32;20188;-68
2023/08/13 00:57:02;;;;;;;1.93;1.83;;;;;;;21.21;88.73;95801.97;4332334;32;20197;-68
2023/08/13 00:59:28;;;;;;;2.63;2.30;;;;;;;21.24;89.35;95802.06;4341170;32;20177;-67
2023/08/13 01:01:54;;;;;;;2.27;2.07;;;;;;;21.23;90.29;95800.50;4341749;32;20201;-67
2023/08/13 01:04:19;;;;;;;3.33;3.13;;;;;;;21.20;90.01;95801.19;4344802;32;20203;-67
2023/08/13 01:07:11;;;;;;;1.17;1.17;;;;;;;21.20;89.55;95803.91;4338134;32;20177;-68
2023/08/13 01:09:41;;;;;;;1.87;1.83;;;;;;;21.15;88.43;95797.97;4357584;32;20193;-68
2023/08/13 01:12:18;;;;;;;1.60;1.50;;;;;;;21.19;89.75;95793.44;4341328;32;20226;-67
2023/08/13 01:15:05;;;;;;;2.23;2.13;;;;;;;21.12;89.92;95785.94;4352776;32;20189;-68
2023/08/13 01:17:33;;;;;;;1.17;1.17;;;;;;;21.15;90.24;95803.38;4344726;32;20189;-67
2023/08/13 01:19:59;;;;;;;1.93;1.83;;;;;;;21.15;89.73;95798.75;4343211;32;20220;-67
2023/08/13 01:22:27;;;;;;;2.73;2.13;;;;;;;21.12;89.92;95807.53;4343220;32;20186;-68
2023/08/13 01:24:52;;;;;;;1.57;1.47;;;;;;;21.13;91.08;95806.41;4351710;32;20192;-67
2023/08/13 01:27:27;;;;;;;2.90;2.60;;;;;;;21.07;90.73;95817.81;4333311;32;20227;-68
2023/08/13 01:29:58;;;;;;;2.33;2.23;;;;;;;21.06;90.74;95821.63;4343720;32;20196;-68
2023/08/13 01:32:29;;;;;;;4.37;2.20;;;;;;;21.03;90.10;95822.31;4343718;32;20225;-67
2023/08/13 01:34:56;;;;;;;2.03;1.80;;;;;;;21.07;91.01;95818.59;4357679;32;20195;-68
2023/08/13 01:37:22;;;;;;;1.53;1.53;;;;;;;21.04;91.17;95816.59;4356841;32;20204;-67
2023/08/13 01:39:48;;;;;;;1.80;1.70;;;;;;;21.03;90.54;95823.09;4344842;32;20201;-67
2023/08/13 01:42:13;;;;;;;1.33;1.33;;;;;;;21.01;89.86;95821.88;4347641;32;20188;-68
2023/08/13 01:44:39;;;;;;;5.27;1.97;;;;;;;21.02;90.72;95810.75;4358252;32;20214;-68
2023/08/13 01:47:04;;;;;;;2.10;1.83;;;;;;;20.98;90.62;95815.28;4340807;32;20303;-67
2023/08/13 01:49:31;;;;;;;1.00;1.00;;;;;;;20.98;90.68;95814.50;4356768;32;20215;-68
2023/08/13 01:51:57;;;;;;;1.10;1.10;;;;;;;20.96;91.04;95805.97;4360653;32;20228;-68
2023/08/13 01:54:22;;;;;;;1.73;1.63;;;;;;;20.94;91.35;95803.63;4342636;32;20199;-68
2023/08/13 01:56:47;;;;;;;1.23;1.23;;;;;;;20.92;90.59;95805.88;4339513;32;20194;-67
2023/08/13 01:59:13;;;;;;;1.10;1.00;;;;;;;20.93;90.94;95804.75;4358622;32;20185;-70
2023/08/13 02:01:38;;;;;;;1.40;1.37;;;;;;;20.90;91.22;95808.13;4335566;32;20212;-68
2023/08/13 02:04:04;;;;;;;1.70;1.60;;;;;;;20.87;90.60;95800.75;4339407;32;20207;-68
2023/08/13 02:06:32;;;;;;;1.47;1.43;;;;;;;20.86;90.48;95801.87;4342660;32;20200;-67
2023/08/13 02:08:58;;;;;;;1.87;1.77;;;;;;;20.85;90.56;95795.69;4343253;32;20204;-68
2023/08/13 02:11:24;;;;;;;1.43;1.43;;;;;;;20.86;90.67;95804.56;4337567;32;20241;-67
2023/08/13 02:13:49;;;;;;;1.90;1.80;;;;;;;20.86;90.73;95797.25;4345045;32;20211;-67
2023/08/13 02:16:14;;;;;;;2.10;2.00;;;;;;;20.86;90.64;95799.16;4358384;32;20189;-67
2023/08/13 02:18:40;;;;;;;2.23;2.10;;;;;;;20.87;91.33;95798.03;4356508;32;20208;-68
2023/08/13 02:21:05;;;;;;;1.63;1.47;;;;;;;20.85;90.95;95803.78;4337950;32;20185;-67
2023/08/13 02:23:30;;;;;;;1.13;1.13;;;;;;;20.85;91.99;95800.28;4343595;32;20185;-67
2023/08/13 02:25:56;;;;;;;1.50;1.40;;;;;;;20.84;91.91;95804.91;4350440;32;20213;-68
2023/08/13 02:28:21;;;;;;;2.43;1.53;;;;;;;20.83;91.92;95802.56;4349258;32;20204;-67
2023/08/13 02:30:49;;;;;;;1.53;1.50;;;;;;;20.83;92.54;95802.56;4341615;32;20197;-67
2023/08/13 02:33:15;;;;;;;1.93;1.83;;;;;;;20.82;91.85;95801.78;4343930;32;20193;-64
2023/08/13 02:35:40;;;;;;;1.30;1.30;;;;;;;20.83;91.79;95799.84;4352439;32;20239;-67
2023/08/13 02:38:05;;;;;;;1.43;1.43;;;;;;;20.84;91.92;95804.91;4335663;32;20202;-67
2023/08/13 02:40:31;;;;;;;1.60;1.60;;;;;;;20.87;92.85;95798.03;4337439;32;20201;-68
2023/08/13 02:42:56;;;;;;;2.43;2.20;;;;;;;20.83;92.84;95807.94;4332077;32;20239;-67
2023/08/13 02:45:21;;;;;;;1.47;1.47;;;;;;;20.73;94.01;95803.06;4356666;32;20208;-67
2023/08/13 02:47:47;;;;;;;2.07;1.90;;;;;;;20.74;93.81;95799.25;4356035;32;20242;-68
2023/08/13 02:50:12;;;;;;;1.90;1.80;;;;;;;20.74;93.36;95800.03;4341755;32;20177;-68
2023/08/13 02:52:37;;;;;;;1.43;1.43;;;;;;;20.77;92.93;95793.16;4349594;32;20189;-68
2023/08/13 02:55:03;;;;;;;2.33;2.20;;;;;;;20.79;92.69;95796.28;4360868;32;20192;-67
2023/08/13 02:57:28;;;;;;;1.87;1.77;;;;;;;20.71;93.80;95798.03;4357104;32;20188;-67
2023/08/13 02:59:54;;;;;;;1.27;1.27;;;;;;;20.73;93.80;95792.28;4356898;32;20193;-67
2023/08/13 03:02:19;;;;;;;0.90;0.90;;;;;;;20.72;94.13;95790.72;4337713;32;20223;-67
2023/08/13 03:04:45;;;;;;;1.83;1.73;;;;;;;20.71;94.73;95786.47;4357550;32;20195;-64
2023/08/13 03:07:10;;;;;;;2.33;2.23;;;;;;;20.68;95.35;95779.84;4351617;32;20199;-67
2023/08/13 03:09:35;;;;;;;1.13;1.13;;;;;;;20.67;95.59;95782.88;4339785;32;20198;-67
2023/08/13 03:12:00;;;;;;;1.87;1.83;;;;;;;20.62;95.89;95777.72;4339644;32;20193;-67
2023/08/13 03:14:26;;;;;;;2.33;2.23;;;;;;;20.65;95.51;95767.03;4342707;32;20251;-67
2023/08/13 03:16:51;;;;;;;1.63;1.63;;;;;;;20.65;95.40;95761.66;4347518;32;20211;-67
2023/08/13 03:19:17;;;;;;;1.67;1.67;;;;;;;20.60;96.12;95761.91;4344606;32;20228;-66
2023/08/13 03:21:42;;;;;;;1.93;1.83;;;;;;;20.61;95.99;95770.78;4364518;32;20264;-67
2023/08/13 03:24:07;;;;;;;1.10;1.10;;;;;;;20.57;96.14;95773.41;4354478;32;20199;-67
2023/08/13 03:26:33;;;;;;;1.70;1.60;;;;;;;20.56;96.95;95778.00;4363712;32;20192;-67
2023/08/13 03:28:58;;;;;;;1.50;1.50;;;;;;;20.54;97.72;95777.56;4336167;32;20185;-67
2023/08/13 03:31:23;;;;;;;1.40;1.40;;;;;;;20.52;97.80;95774.44;4358839;32;20219;-67
2023/08/13 03:33:49;;;;;;;2.10;2.00;;;;;;;20.49;97.58;95772.44;4355171;32;20253;-67
2023/08/13 03:36:14;;;;;;;1.13;1.13;;;;;;;20.48;97.54;95767.38;4358084;32;20288;-67
2023/08/13 03:38:39;;;;;;;1.30;1.30;;;;;;;20.47;97.61;95773.91;4352811;32;20240;-68
2023/08/13 03:41:05;;;;;;;3.50;1.93;;;;;;;20.39;98.04;95770.22;4355591;32;20266;-67
2023/08/13 03:43:30;;;;;;;2.37;2.27;;;;;;;20.38;98.10;95774.03;4333904;32;20190;-67
2023/08/13 03:45:55;;;;;;;1.77;1.70;;;;;;;20.37;98.28;95771.72;4338924;32;20209;-67
2023/08/13 03:48:21;;;;;;;6.07;1.53;;;;;;;20.38;98.30;95774.03;4356477;32;20216;-67
2023/08/13 03:50:46;;;;;;;1.17;1.17;;;;;;;20.35;98.34;95780.13;4354597;32;20185;-66
2023/08/13 03:53:11;;;;;;;1.63;1.63;;;;;;;20.37;98.37;95774.41;4358535;32;20220;-67
2023/08/13 03:55:37;;;;;;;2.07;1.97;;;;;;;20.35;98.31;95772.03;4354961;32;20205;-67
2023/08/13 03:58:03;;;;;;;1.50;1.50;;;;;;;20.34;98.37;95781.25;4339661;32;20211;-67
2023/08/13 04:00:29;;;;;;;1.87;1.77;;;;;;;20.30;98.71;95772.28;4362223;32;20259;-67
2023/08/13 04:02:55;;;;;;;1.43;1.33;;;;;;;20.33;98.62;95776.97;4341841;32;20181;-67
2023/08/13 04:05:20;;;;;;;1.17;1.13;;;;;;;20.31;98.73;95771.13;4341260;32;20224;-67
2023/08/13 04:07:46;;;;;;;2.87;2.53;;;;;;;20.28;98.74;95771.81;4340579;32;20201;-66
2023/08/13 04:10:11;;;;;;;1.87;1.77;;;;;;;20.22;98.88;95770.50;4349202;32;20189;-67
2023/08/13 04:12:36;;;;;;;7.73;1.70;;;;;;;20.18;99.23;95772.31;4348679;32;20212;-67
2023/08/13 04:15:03;;;;;;;2.10;2.00;;;;;;;20.19;98.87;95779.25;4356904;32;20208;-67
2023/08/13 04:17:28;;;;;;;1.47;1.47;;;;;;;20.19;98.76;95780.03;4357949;32;20177;-67
2023/08/13 04:19:53;;;;;;;5.03;1.67;;;;;;;20.16;98.94;95779.97;4347743;32;20192;-67
2023/08/13 04:22:19;;;;;;;2.23;2.13;;;;;;;20.15;99.00;95781.09;4349637;32;20189;-67
2023/08/13 04:24:50;;;;;;;1.67;1.57;;;;;;;20.16;98.76;95777.28;4349379;32;20211;-67
2023/08/13 04:27:16;;;;;;;2.03;1.93;;;;;;;20.17;98.55;95776.13;4330553;32;20212;-66
2023/08/13 04:29:41;;;;;;;1.70;1.70;;;;;;;20.14;98.56;95774.12;4342816;32;20220;-67
2023/08/13 04:32:07;;;;;;;1.33;1.33;;;;;;;20.15;98.57;95773.81;4348885;32;20189;-67
2023/08/13 04:34:32;;;;;;;2.40;2.20;;;;;;;20.13;98.82;95777.97;4350493;32;20192;-67
2023/08/13 04:36:57;;;;;;;1.77;1.67;;;;;;;20.14;98.82;95776.84;4352796;32;20227;-67
2023/08/13 04:39:23;;;;;;;1.43;1.33;;;;;;;20.14;99.04;95784.91;4353915;32;20235;-67
2023/08/13 04:41:49;;;;;;;1.20;1.20;;;;;;;20.14;98.94;95777.63;4342265;32;20253;-67
2023/08/13 04:44:14;;;;;;;1.90;1.80;;;;;;;20.14;98.81;95771.44;4335505;32;20211;-67
2023/08/13 04:46:39;;;;;;;1.53;1.43;;;;;;;20.12;99.03;95773.69;4348169;32;20252;-67
2023/08/13 04:49:05;;;;;;;1.60;1.50;;;;;;;20.13;98.99;95772.56;4330038;32;20251;-67
2023/08/13 04:51:30;;;;;;;1.43;1.33;;;;;;;20.13;99.00;95770.66;4348136;32;20233;-67
2023/08/13 04:53:55;;;;;;;2.20;1.70;;;;;;;20.14;98.80;95766.06;4355233;32;20235;-67
2023/08/13 04:56:21;;;;;;;1.40;1.40;;;;;;;20.12;99.02;95766.41;4348464;32;20242;-67
2023/08/13 04:58:46;;;;;;;1.97;1.87;;;;;;;20.11;98.98;95767.53;4340515;32;20205;-66
2023/08/13 05:01:11;;;;;;;1.27;1.27;;;;;;;20.16;99.18;95769.19;4344494;32;20208;-67
2023/08/13 05:03:38;;;;;;;1.23;1.23;;;;;;;20.12;99.22;95768.31;4349727;32;20235;-67
2023/08/13 05:06:03;;;;;;;1.73;1.63;;;;;;;20.14;99.17;95771.44;4335654;32;20239;-67
2023/08/13 05:08:28;;;;;;;1.57;1.57;;;;;;;20.15;99.29;95770.31;4329982;32;20196;-67
2023/08/13 05:10:54;;;;;;;5.50;2.27;;;;;;;20.16;98.88;95779.97;4341957;32;20189;-67
2023/08/13 05:13:19;;;;;;;1.80;1.70;;;;;;;20.17;98.77;95770.72;4326682;32;20204;-67
2023/08/13 05:15:45;;;;;;;1.10;1.10;;;;;;;20.21;98.34;95767.00;4342985;32;20174;-67
2023/08/13 05:18:10;;;;;;;2.77;2.50;;;;;;;20.22;98.12;95757.03;4346275;32;20246;-67
2023/08/13 05:20:35;;;;;;;1.90;1.80;;;;;;;20.27;97.87;95764.09;4336167;32;20196;-67
2023/08/13 05:23:01;;;;;;;2.33;1.30;;;;;;;20.31;97.31;95765.75;4341804;32;20189;-67
2023/08/13 05:25:26;;;;;;;1.27;1.27;;;;;;;20.33;97.04;95768.09;4350388;32;20194;-67
2023/08/13 05:27:52;;;;;;;1.30;1.13;;;;;;;20.33;97.52;95771.59;4344476;32;20193;-67
2023/08/13 05:30:17;;;;;;;1.70;1.27;;;;;;;20.32;97.10;95761.94;4341627;32;20225;-67
2023/08/13 05:32:43;;;;;;;1.80;1.27;;;;;;;20.34;96.98;95765.06;4348748;32;20193;-67
2023/08/13 05:35:08;;;;;;;1.10;1.07;;;;;;;20.38;96.69;95762.47;4355213;32;20177;-68
2023/08/13 05:37:34;;;;;;;0.97;0.97;;;;;;;20.40;96.87;95761.00;4343910;32;20185;-67
2023/08/13 05:39:59;;;;;;;1.50;1.50;;;;;;;20.42;96.71;95760.66;4364902;32;20207;-67
2023/08/13 05:42:24;;;;;;;1.73;1.63;;;;;;;20.44;96.35;95753.81;4354626;32;20277;-67
2023/08/13 05:44:50;;;;;;;1.03;1.03;;;;;;;20.47;96.18;95752.31;4355774;32;20197;-67
2023/08/13 05:47:15;;;;;;;1.67;1.67;;;;;;;20.49;95.52;95758.94;4340462;32;20177;-66
2023/08/13 05:49:40;;;;;;;1.03;1.03;;;;;;;20.52;95.24;95760.16;4350133;32;20399;-67
2023/08/13 05:52:06;;;;;;;1.33;1.33;;;;;;;20.50;96.08;95763.22;4341483;32;20292;-67
2023/08/13 05:54:31;;;;;;;1.40;1.30;;;;;;;20.55;95.69;95762.97;4355101;32;20181;-67
2023/08/13 05:56:56;;;;;;;1.80;1.70;;;;;;;20.53;95.71;95767.12;4341253;32;20177;-67
2023/08/13 05:59:22;;;;;;;1.67;1.63;;;;;;;20.54;95.35;95763.31;4346283;32;20203;-67
2023/08/13 06:01:47;;;;;;;2.03;1.93;;;;;;;20.55;95.46;95767.56;4345047;32;20217;-66
2023/08/13 06:04:14;;;;;;;1.33;1.33;;;;;;;20.59;94.86;95765.72;4352300;32;20208;-68
2023/08/13 06:06:39;;;;;;;0.87;0.87;;;;;;;20.62;94.85;95764.25;4372256;32;20184;-67
2023/08/13 06:09:05;;;;;;;1.33;1.33;;;;;;;20.62;94.68;95756.16;4345772;32;20321;-67
2023/08/13 06:11:31;;;;;;;1.63;1.53;;;;;;;20.66;94.96;95754.34;4351729;32;20196;-67
2023/08/13 06:13:56;;;;;;;1.33;1.33;;;;;;;20.62;94.06;95743.47;4356517;32;20189;-67
2023/08/13 06:16:21;;;;;;;1.37;1.33;;;;;;;20.65;94.70;95752.78;4358096;32;20188;-66
2023/08/13 06:18:46;;;;;;;1.57;1.47;;;;;;;20.65;95.01;95750.88;4357994;32;20189;-66
2023/08/13 06:21:12;;;;;;;1.40;1.30;;;;;;;20.68;94.77;95746.69;4341960;32;20233;-67
2023/08/13 06:23:38;;;;;;;0.97;0.97;;;;;;;20.69;94.72;95749.06;4353941;32;20196;-67
2023/08/13 06:26:04;;;;;;;2.03;1.93;;;;;;;20.74;95.15;95743.41;4334165;32;20201;-67
2023/08/13 06:28:29;;;;;;;1.17;1.17;;;;;;;20.79;94.79;95747.72;4352166;32;20219;-67
2023/08/13 06:30:54;;;;;;;1.60;1.57;;;;;;;20.83;94.64;95748.59;4349321;32;20219;-67
2023/08/13 06:33:20;;;;;;;2.10;2.00;;;;;;;20.89;94.29;95737.22;4335108;32;20186;-67
2023/08/13 06:35:47;;;;;;;1.27;1.27;;;;;;;20.96;94.50;95747.41;4353007;32;20193;-66
2023/08/13 06:38:15;;;;;;;1.53;1.50;;;;;;;21.07;93.51;95736.84;4367091;32;20200;-67
2023/08/13 06:40:41;;;;;;;0.83;0.83;;;;;;;21.26;92.06;95737.72;4366916;32;20213;-67
2023/08/13 06:43:07;;;;;;;1.07;1.07;;;;;;;21.36;91.21;95739.13;4343810;32;20197;-68
2023/08/13 06:45:32;;;;;;;1.07;1.07;;;;;;;21.51;90.65;95743.69;4337096;32;20207;-67
2023/08/13 06:47:58;;;;;;;1.37;1.37;;;;;;;21.68;90.18;95739.00;4343602;32;20256;-68
2023/08/13 06:50:24;;;;;;;0.97;0.97;;;;;;;21.75;88.96;95739.16;4343889;32;20186;-67
2023/08/13 06:52:49;;;;;;;1.03;1.03;;;;;;;21.81;88.75;95727.75;4343921;32;20219;-67
2023/08/13 06:55:15;;;;;;;1.07;1.07;;;;;;;21.86;88.48;95730.13;4337265;32;20189;-67
2023/08/13 06:57:40;;;;;;;1.07;1.07;;;;;;;21.88;88.03;95727.88;4334390;32;20189;-67
2023/08/13 07:00:06;;;;;;;1.63;1.53;;;;;;;21.93;87.57;95727.59;4336140;32;20200;-67
2023/08/13 07:02:31;;;;;;;0.50;0.50;;;;;;;21.98;87.29;95726.53;4357280;32;20240;-67
2023/08/13 07:04:57;;;;;;;1.60;1.50;;;;;;;21.98;87.35;95728.44;4337114;32;20208;-67
2023/08/13 07:07:22;;;;;;;3.20;1.40;;;;;;;22.07;87.11;95737.12;4343128;32;20182;-67
2023/08/13 07:09:48;;;;;;;0.87;0.87;;;;;;;22.15;85.69;95736.16;4357737;32;20262;-67
2023/08/13 07:12:13;;;;;;;13.43;12.20;;;;;;;22.20;86.86;95738.56;4352217;32;20208;-67
2023/08/13 07:14:38;;;;;;;42.57;36.20;;;;;;;22.21;86.12;95735.50;4330917;32;20249;-67
2023/08/13 07:17:04;;;;;;;5.10;4.80;;;;;;;22.25;85.96;95733.63;4337306;32;20232;-67
2023/08/13 07:19:29;;;;;;;3.80;3.60;;;;;;;22.34;84.60;95725.31;4344988;32;20200;-67
2023/08/13 07:21:54;;;;;;;1.97;1.87;;;;;;;22.35;85.36;95736.91;4368377;32;20185;-67
2023/08/13 07:24:20;;;;;;;1.43;1.40;;;;;;;22.45;84.04;95734.38;4354890;32;20242;-67
2023/08/13 07:26:45;;;;;;;1.67;1.57;;;;;;;22.47;83.86;95742.13;4350602;32;20303;-64
2023/08/13 07:29:12;;;;;;;9.40;8.77;;;;;;;22.51;85.20;95743.78;4356253;32;20261;-68
2023/08/13 07:31:38;;;;;;;6.60;6.00;;;;;;;22.54;84.90;95742.28;4343577;32;20286;-67
2023/08/13 07:34:03;;;;;;;3.07;2.90;;;;;;;22.59;84.62;95736.56;4332694;32;20181;-68
2023/08/13 07:36:29;;;;;;;1.30;1.30;;;;;;;22.64;82.99;95739.00;4329239;32;20249;-67
2023/08/13 07:38:54;;;;;;;1.30;1.30;;;;;;;22.74;81.98;95738.38;4325229;32;20190;-67
2023/08/13 07:41:19;;;;;;;0.83;0.83;;;;;;;22.78;82.32;95743.88;4333284;32;20249;-67
2023/08/13 07:43:45;;;;;;;1.30;1.30;;;;;;;22.83;81.46;95740.87;4327322;32;20189;-67
2023/08/13 07:46:10;;;;;;;1.67;1.57;;;;;;;23.01;80.46;95738.47;4325062;32;20194;-68
2023/08/13 07:48:35;;;;;;;3.57;3.30;;;;;;;23.15;80.01;95750.28;4334984;32;20272;-68
2023/08/13 07:51:01;;;;;;;1.13;1.03;;;;;;;23.33;78.43;95741.66;4329345;32;20177;-68
2023/08/13 07:53:29;;;;;;;1.53;1.43;;;;;;;23.30;79.33;95748.56;4324866;32;20224;-68
2023/08/13 07:55:54;;;;;;;2.20;2.10;;;;;;;23.31;77.85;95744.72;4326233;32;20243;-68
2023/08/13 07:58:19;;;;;;;5.17;3.23;;;;;;;23.42;77.13;95742.97;4322247;32;20182;-68
2023/08/13 08:00:45;;;;;;;1.90;1.80;;;;;;;23.52;76.82;95734.22;4328239;32;20177;-68
2023/08/13 08:03:10;;;;;;;1.33;1.33;;;;;;;23.47;77.23;95734.53;4334167;32;20205;-68
2023/08/13 08:05:36;;;;;;;1.10;1.10;;;;;;;23.58;77.74;95732.75;4327053;32;20194;-68
2023/08/13 08:08:01;;;;;;;1.50;1.33;;;;;;;23.64;77.71;95730.53;4328383;32;20216;-68
2023/08/13 08:10:28;;;;;;;0.77;0.77;;;;;;;23.62;77.97;95728.19;4314269;32;20179;-68
2023/08/13 08:12:54;;;;;;;0.87;0.87;;;;;;;23.77;77.36;95731.84;4321208;32;20189;-68
2023/08/13 08:15:21;;;;;;;1.17;1.17;;;;;;;23.79;77.55;95729.56;4316521;32;20197;-68
2023/08/13 08:17:47;;;;;;;1.43;0.50;;;;;;;23.81;78.25;95731.91;4343939;32;20192;-67
2023/08/13 08:20:12;;;;;;;0.80;0.80;;;;;;;23.82;78.15;95728.03;4325414;33;20207;-68
2023/08/13 08:22:37;;;;;;;0.50;0.50;;;;;;;23.93;76.63;95740.56;4334119;32;20177;-69
2023/08/13 08:25:10;;;;;;;6.23;1.63;;;;;;;23.80;76.95;95735.75;4326817;32;20224;-68
2023/08/13 08:27:36;;;;;;;0.80;0.80;;;;;;;23.81;77.28;95738.09;4316281;32;20194;-68
2023/08/13 08:30:02;;;;;;;0.77;0.77;;;;;;;23.99;76.98;95732.87;4327202;32;20190;-68
2023/08/13 08:32:28;;;;;;;1.13;1.13;;;;;;;23.97;77.08;95735.97;4337898;32;20189;-68
2023/08/13 08:34:54;;;;;;;2.20;1.47;;;;;;;23.98;76.32;95725.91;4341687;32;20229;-68
2023/08/13 08:37:19;;;;;;;1.30;0.93;;;;;;;23.94;77.06;95725.06;4337344;32;20178;-67
2023/08/13 08:39:45;;;;;;;0.63;0.57;;;;;;;24.01;76.48;95716.25;4339221;32;20182;-68
2023/08/13 08:42:13;;;;;;;1.00;1.00;;;;;;;24.07;76.10;95721.00;4335144;32;20303;-68
2023/08/13 08:44:43;;;;;;;1.30;1.20;;;;;;;24.24;75.89;95728.56;4332386;32;20227;-68
2023/08/13 08:47:09;;;;;;;0.73;0.70;;;;;;;24.30;75.12;95718.19;4335777;32;20178;-68
2023/08/13 08:49:35;;;;;;;1.03;1.03;;;;;;;24.21;76.00;95717.66;4333740;32;20229;-68
2023/08/13 08:52:01;;;;;;;0.87;0.87;;;;;;;24.26;76.61;95715.41;4336394;32;20201;-68
2023/08/13 08:54:26;;;;;;;0.83;0.83;;;;;;;24.45;75.37;95717.16;4332994;32;20193;-68
2023/08/13 08:56:52;;;;;;;1.20;1.20;;;;;;;24.53;75.34;95718.00;4338211;32;20216;-68
2023/08/13 08:59:17;;;;;;;0.47;0.47;;;;;;;24.67;74.71;95710.00;4331166;32;20205;-68
2023/08/13 09:01:43;;;;;;;0.80;0.80;;;;;;;24.77;73.94;95711.25;4319682;33;20193;-68
2023/08/13 09:04:08;;;;;;;1.13;1.13;;;;;;;24.64;73.88;95714.25;4331248;32;20216;-68
2023/08/13 09:07:03;;;;;;;0.40;0.40;;;;;;;24.67;74.19;95710.78;4340391;32;20207;-69
2023/08/13 09:09:29;;;;;;;0.93;0.93;;;;;;;24.74;74.99;95709.25;4325336;32;20235;-68
2023/08/13 09:11:56;;;;;;;0.77;0.77;;;;;;;24.75;73.92;95713.53;4324607;32;20201;-68
2023/08/13 09:14:23;;;;;;;0.60;0.60;;;;;;;24.87;73.70;95705.91;4320380;32;20186;-68
2023/08/13 09:16:50;;;;;;;0.80;0.80;;;;;;;24.95;74.14;95712.97;4313158;32;20256;-68
2023/08/13 09:19:17;;;;;;;0.43;0.43;;;;;;;24.94;73.72;95705.19;4339043;32;20223;-67
2023/08/13 09:21:54;;;;;;;0.43;0.43;;;;;;;24.98;73.02;95706.78;4332261;32;20186;-68
2023/08/13 09:24:31;;;;;;;0.60;0.60;;;;;;;25.01;72.71;95713.41;4318513;32;20205;-68
2023/08/13 09:26:57;;;;;;;0.77;0.77;;;;;;;25.20;71.87;95702.28;4324839;32;20210;-68
2023/08/13 09:29:22;;;;;;;0.60;0.60;;;;;;;25.15;72.26;95702.63;4329280;32;20189;-68
2023/08/13 09:31:47;;;;;;;0.53;0.53;;;;;;;25.14;71.20;95698.41;4359528;32;20229;-67
2023/08/13 09:34:13;;;;;;;1.40;1.30;;;;;;;25.11;70.66;95699.16;4351169;32;20200;-68
2023/08/13 09:36:38;;;;;;;0.50;0.50;;;;;;;25.07;71.85;95695.63;4327723;32;20200;-68
2023/08/13 09:39:04;;;;;;;1.33;1.33;;;;;;;25.14;71.27;95692.19;4342820;32;20198;-68
2023/08/13 09:41:29;;;;;;;1.10;1.07;;;;;;;25.38;70.42;95690.75;4335495;32;20256;-68
2023/08/13 09:44:02;;;;;;;1.10;1.10;;;;;;;25.34;70.62;95686.09;4355266;32;20250;-68
2023/08/13 09:46:28;;;;;;;0.80;0.80;;;;;;;25.38;70.54;95674.47;4351173;32;20215;-67
2023/08/13 09:48:55;;;;;;;1.03;1.03;;;;;;;25.32;71.61;95687.63;4357604;32;20185;-68
2023/08/13 09:51:28;;;;;;;0.73;0.73;;;;;;;25.46;71.23;95682.28;4354224;32;20199;-67
2023/08/13 09:53:59;;;;;;;1.30;1.20;;;;;;;25.53;70.32;95681.53;4367423;32;20207;-67
2023/08/13 09:56:28;;;;;;;3.17;0.93;;;;;;;25.50;70.37;95674.16;4345487;32;20203;-68
2023/08/13 09:58:54;;;;;;;0.80;0.80;;;;;;;25.51;70.15;95673.78;4331300;32;20208;-67
2023/08/13 10:01:20;;;;;;;0.87;0.87;;;;;;;25.52;69.78;95667.19;4354073;32;20177;-67
2023/08/13 10:03:45;;;;;;;1.03;1.03;;;;;;;25.44;70.75;95667.50;4359006;32;20204;-68
2023/08/13 10:06:11;;;;;;;2.37;1.37;;;;;;;25.39;71.17;95665.16;4354101;32;20193;-68
2023/08/13 10:08:37;;;;;;;1.03;1.03;;;;;;;25.47;71.40;95672.19;4337467;32;20203;-68
2023/08/13 10:11:04;;;;;;;3.57;1.47;;;;;;;25.61;70.43;95667.59;4356384;32;20199;-67
2023/08/13 10:13:29;;;;;;;1.97;1.00;;;;;;;25.57;71.30;95671.44;4348704;32;20230;-68
2023/08/13 10:15:55;;;;;;;0.67;0.67;;;;;;;25.69;71.86;95665.72;4334327;32;20201;-67
2023/08/13 10:18:22;;;;;;;1.27;1.27;;;;;;;25.76;72.67;95673.13;4344845;32;20236;-67
2023/08/13 10:20:48;;;;;;;0.90;0.90;;;;;;;25.78;72.50;95678.94;4352390;32;20264;-67
2023/08/13 10:23:13;;;;;;;2.03;1.83;;;;;;;25.72;72.52;95666.91;4344845;32;20219;-67
2023/08/13 10:25:39;;;;;;;2.27;1.10;;;;;;;25.72;72.20;95669.63;4343129;32;20190;-68
2023/08/13 10:28:31;;;;;;;1.03;0.97;;;;;;;25.92;71.40;95668.94;4334611;32;20212;-68
2023/08/13 10:31:21;;;;;;;0.70;0.70;;;;;;;26.11;72.13;95669.75;4341167;32;20204;-68
2023/08/13 10:33:46;;;;;;;1.00;1.00;;;;;;;26.08;72.71;95662.34;4330964;32;20204;-67
2023/08/13 10:36:11;;;;;;;0.80;0.80;;;;;;;26.14;72.26;95666.28;4352429;32;20189;-68
2023/08/13 10:38:38;;;;;;;1.33;1.27;;;;;;;26.03;72.09;95658.84;4335160;32;20212;-68
2023/08/13 10:41:06;;;;;;;1.40;1.40;;;;;;;26.08;72.71;95665.06;4339989;32;20196;-68
2023/08/13 10:43:33;;;;;;;0.83;0.83;;;;;;;26.16;72.20;95659.28;4357721;32;20189;-68
2023/08/13 10:45:58;;;;;;;0.90;0.90;;;;;;;26.11;72.32;95661.59;4344819;32;20177;-68
2023/08/13 10:48:27;;;;;;;1.23;1.13;;;;;;;26.16;72.00;95663.94;4356403;32;20250;-68
2023/08/13 10:50:54;;;;;;;1.70;1.50;;;;;;;26.27;71.57;95662.00;4356437;32;20184;-68
2023/08/13 10:53:22;;;;;;;1.10;1.10;;;;;;;26.22;72.00;95662.38;4356480;32;20205;-67
2023/08/13 10:55:49;;;;;;;1.20;1.10;;;;;;;26.18;71.85;95650.75;4346913;32;20251;-67
2023/08/13 10:58:26;;;;;;;0.57;0.57;;;;;;;26.16;72.74;95653.06;4348988;32;20252;-68
2023/08/13 11:01:00;;;;;;;1.50;1.40;;;;;;;26.07;73.37;95650.69;4343453;32;20242;-68
2023/08/13 11:03:29;;;;;;;0.53;0.53;;;;;;;26.28;72.47;95649.97;4348371;32;20193;-67
2023/08/13 11:05:55;;;;;;;0.70;0.70;;;;;;;26.22;72.70;95651.50;4343536;32;20193;-68
2023/08/13 11:08:22;;;;;;;2.00;1.10;;;;;;;26.30;72.24;95658.56;4356951;32;20189;-68
2023/08/13 11:10:49;;;;;;;3.50;1.60;;;;;;;26.33;72.15;95652.34;4354166;32;20225;-67
2023/08/13 11:13:18;;;;;;;1.63;1.57;;;;;;;26.34;71.76;95654.69;4347716;32;20185;-68
2023/08/13 11:15:54;;;;;;;0.73;0.73;;;;;;;26.37;71.93;95658.56;4339516;32;20189;-68
2023/08/13 11:18:21;;;;;;;0.83;0.83;;;;;;;26.27;72.44;95651.13;4355123;32;20184;-68
2023/08/13 11:20:47;;;;;;;0.87;0.87;;;;;;;26.18;73.15;95650.75;4342260;32;20259;-68
2023/08/13 11:23:14;;;;;;;1.27;1.27;;;;;;;26.35;72.05;95648.06;4341387;32;20197;-68
2023/08/13 11:25:40;;;;;;;0.87;0.87;;;;;;;26.32;72.33;95650.78;4344833;32;20188;-68
2023/08/13 11:28:06;;;;;;;1.57;1.47;;;;;;;26.30;72.52;95647.66;4349713;32;20268;-68
2023/08/13 11:30:31;;;;;;;1.57;1.47;;;;;;;26.42;71.87;95651.94;4335411;32;20219;-68